sensor_id;sensor_type;location;lat;lon;timestamp;P1;durP1;ratioP1;P2;durP2;ratioP2
70725;SDS011;58304;53.104;6.022;2023-04-03T00:00:28;0.93;;;0.50;;
70725;SDS011;58304;53.104;6.022;2023-04-03T00:02:53;0.75;;;0.40;;
70725;SDS011;58304;53.104;6.022;2023-04-03T00:05:19;2.08;;;0.50;;
70725;SDS011;58304;53.104;6.022;2023-04-03T00:07:45;1.55;;;0.52;;
70725;SDS011;58304;53.104;6.022;2023-04-03T00:10:11;2.10;;;0.70;;
70725;SDS011;58304;53.104;6.022;2023-04-03T00:12:37;1.00;;;0.50;;
70725;SDS011;58304;53.104;6.022;2023-04-03T00:15:02;0.75;;;0.40;;
70725;SDS011;58304;53.104;6.022;2023-04-03T00:19:54;1.17;;;0.40;;
70725;SDS011;58304;53.104;6.022;2023-04-03T00:22:20;1.15;;;0.45;;
70725;SDS011;58304;53.104;6.022;2023-04-03T00:24:45;0.90;;;0.43;;
70725;SDS011;58304;53.104;6.022;2023-04-03T00:27:11;0.80;;;0.32;;
70725;SDS011;58304;53.104;6.022;2023-04-03T00:29:36;0.55;;;0.30;;
70725;SDS011;58304;53.104;6.022;2023-04-03T00:32:02;2.35;;;0.50;;
70725;SDS011;58304;53.104;6.022;2023-04-03T00:34:28;0.60;;;0.30;;
70725;SDS011;58304;53.104;6.022;2023-04-03T00:36:53;2.03;;;0.60;;
70725;SDS011;58304;53.104;6.022;2023-04-03T00:39:19;0.95;;;0.50;;
70725;SDS011;58304;53.104;6.022;2023-04-03T00:41:46;0.65;;;0.40;;
70725;SDS011;58304;53.104;6.022;2023-04-03T00:46:52;1.27;;;0.55;;
70725;SDS011;58304;53.104;6.022;2023-04-03T00:49:18;0.85;;;0.30;;
70725;SDS011;58304;53.104;6.022;2023-04-03T00:51:44;0.88;;;0.30;;
70725;SDS011;58304;53.104;6.022;2023-04-03T00:54:10;2.60;;;0.40;;
70725;SDS011;58304;53.104;6.022;2023-04-03T00:56:36;1.95;;;0.32;;
70725;SDS011;58304;53.104;6.022;2023-04-03T00:59:08;1.98;;;0.40;;
70725;SDS011;58304;53.104;6.022;2023-04-03T01:01:37;3.20;;;0.50;;
70725;SDS011;58304;53.104;6.022;2023-04-03T01:06:32;0.80;;;0.40;;
70725;SDS011;58304;53.104;6.022;2023-04-03T01:09:00;0.93;;;0.22;;
70725;SDS011;58304;53.104;6.022;2023-04-03T01:13:52;0.77;;;0.40;;
70725;SDS011;58304;53.104;6.022;2023-04-03T01:16:18;1.00;;;0.40;;
70725;SDS011;58304;53.104;6.022;2023-04-03T01:18:44;0.88;;;0.32;;
70725;SDS011;58304;53.104;6.022;2023-04-03T01:24:12;0.95;;;0.47;;
70725;SDS011;58304;53.104;6.022;2023-04-03T01:26:42;0.68;;;0.32;;
70725;SDS011;58304;53.104;6.022;2023-04-03T01:29:08;1.13;;;0.40;;
70725;SDS011;58304;53.104;6.022;2023-04-03T01:34:02;0.77;;;0.30;;
70725;SDS011;58304;53.104;6.022;2023-04-03T01:36:29;0.30;;;0.30;;
70725;SDS011;58304;53.104;6.022;2023-04-03T01:38:56;0.95;;;0.40;;
70725;SDS011;58304;53.104;6.022;2023-04-03T01:41:24;2.47;;;0.60;;
70725;SDS011;58304;53.104;6.022;2023-04-03T01:43:50;3.08;;;0.52;;
70725;SDS011;58304;53.104;6.022;2023-04-03T01:48:42;1.00;;;0.50;;
70725;SDS011;58304;53.104;6.022;2023-04-03T01:51:08;2.70;;;0.55;;
70725;SDS011;58304;53.104;6.022;2023-04-03T01:53:34;1.45;;;0.52;;
70725;SDS011;58304;53.104;6.022;2023-04-03T01:56:00;1.95;;;0.40;;
70725;SDS011;58304;53.104;6.022;2023-04-03T01:58:25;0.98;;;0.40;;
70725;SDS011;58304;53.104;6.022;2023-04-03T02:00:51;0.80;;;0.43;;
70725;SDS011;58304;53.104;6.022;2023-04-03T02:03:17;2.20;;;0.52;;
70725;SDS011;58304;53.104;6.022;2023-04-03T02:05:43;1.50;;;0.65;;
70725;SDS011;58304;53.104;6.022;2023-04-03T02:08:09;1.90;;;0.60;;
70725;SDS011;58304;53.104;6.022;2023-04-03T02:10:35;1.45;;;0.50;;
70725;SDS011;58304;53.104;6.022;2023-04-03T02:13:00;0.90;;;0.50;;
70725;SDS011;58304;53.104;6.022;2023-04-03T02:15:26;1.50;;;0.43;;
70725;SDS011;58304;53.104;6.022;2023-04-03T02:17:51;2.33;;;0.60;;
70725;SDS011;58304;53.104;6.022;2023-04-03T02:20:17;4.63;;;0.73;;
70725;SDS011;58304;53.104;6.022;2023-04-03T02:22:43;1.67;;;0.50;;
70725;SDS011;58304;53.104;6.022;2023-04-03T02:25:09;2.00;;;0.50;;
70725;SDS011;58304;53.104;6.022;2023-04-03T02:27:35;1.55;;;0.60;;
70725;SDS011;58304;53.104;6.022;2023-04-03T02:32:27;2.67;;;0.70;;
70725;SDS011;58304;53.104;6.022;2023-04-03T02:34:53;2.03;;;0.50;;
70725;SDS011;58304;53.104;6.022;2023-04-03T02:37:18;1.10;;;0.60;;
70725;SDS011;58304;53.104;6.022;2023-04-03T02:39:44;1.70;;;0.55;;
70725;SDS011;58304;53.104;6.022;2023-04-03T02:42:10;1.25;;;0.40;;
70725;SDS011;58304;53.104;6.022;2023-04-03T02:44:35;1.27;;;0.60;;
70725;SDS011;58304;53.104;6.022;2023-04-03T02:47:01;3.22;;;0.70;;
70725;SDS011;58304;53.104;6.022;2023-04-03T02:51:53;1.75;;;0.73;;
70725;SDS011;58304;53.104;6.022;2023-04-03T02:54:18;1.63;;;0.50;;
70725;SDS011;58304;53.104;6.022;2023-04-03T02:56:44;2.33;;;0.65;;
70725;SDS011;58304;53.104;6.022;2023-04-03T02:59:09;2.35;;;0.77;;
70725;SDS011;58304;53.104;6.022;2023-04-03T03:01:35;1.45;;;0.75;;
70725;SDS011;58304;53.104;6.022;2023-04-03T03:04:01;1.67;;;0.75;;
70725;SDS011;58304;53.104;6.022;2023-04-03T03:06:27;2.10;;;0.65;;
70725;SDS011;58304;53.104;6.022;2023-04-03T03:08:52;1.75;;;0.70;;
70725;SDS011;58304;53.104;6.022;2023-04-03T03:11:18;1.98;;;0.65;;
70725;SDS011;58304;53.104;6.022;2023-04-03T03:13:44;2.63;;;0.57;;
70725;SDS011;58304;53.104;6.022;2023-04-03T03:16:09;1.50;;;0.50;;
70725;SDS011;58304;53.104;6.022;2023-04-03T03:18:35;1.52;;;0.60;;
70725;SDS011;58304;53.104;6.022;2023-04-03T03:21:01;3.17;;;0.57;;
70725;SDS011;58304;53.104;6.022;2023-04-03T03:23:28;2.78;;;0.70;;
70725;SDS011;58304;53.104;6.022;2023-04-03T03:25:56;1.10;;;0.50;;
70725;SDS011;58304;53.104;6.022;2023-04-03T03:28:22;1.80;;;0.57;;
70725;SDS011;58304;53.104;6.022;2023-04-03T03:30:48;1.35;;;0.40;;
70725;SDS011;58304;53.104;6.022;2023-04-03T03:33:14;0.68;;;0.50;;
70725;SDS011;58304;53.104;6.022;2023-04-03T03:35:40;1.45;;;0.52;;
70725;SDS011;58304;53.104;6.022;2023-04-03T03:38:05;4.82;;;0.80;;
70725;SDS011;58304;53.104;6.022;2023-04-03T03:40:31;2.67;;;0.40;;
70725;SDS011;58304;53.104;6.022;2023-04-03T03:42:57;5.38;;;0.77;;
70725;SDS011;58304;53.104;6.022;2023-04-03T03:45:22;2.78;;;0.60;;
70725;SDS011;58304;53.104;6.022;2023-04-03T03:47:48;2.90;;;0.77;;
70725;SDS011;58304;53.104;6.022;2023-04-03T03:50:13;2.38;;;0.80;;
70725;SDS011;58304;53.104;6.022;2023-04-03T03:52:39;4.63;;;0.80;;
70725;SDS011;58304;53.104;6.022;2023-04-03T03:55:05;1.73;;;0.75;;
70725;SDS011;58304;53.104;6.022;2023-04-03T03:57:31;3.33;;;0.90;;
70725;SDS011;58304;53.104;6.022;2023-04-03T03:59:56;1.67;;;0.77;;
70725;SDS011;58304;53.104;6.022;2023-04-03T04:02:22;4.75;;;0.60;;
70725;SDS011;58304;53.104;6.022;2023-04-03T04:04:48;1.58;;;0.60;;
70725;SDS011;58304;53.104;6.022;2023-04-03T04:07:13;3.20;;;0.60;;
70725;SDS011;58304;53.104;6.022;2023-04-03T04:09:39;2.00;;;0.63;;
70725;SDS011;58304;53.104;6.022;2023-04-03T04:12:05;3.28;;;0.70;;
70725;SDS011;58304;53.104;6.022;2023-04-03T04:14:30;2.83;;;0.60;;
70725;SDS011;58304;53.104;6.022;2023-04-03T04:16:57;3.38;;;0.70;;
70725;SDS011;58304;53.104;6.022;2023-04-03T04:19:23;1.83;;;0.60;;
70725;SDS011;58304;53.104;6.022;2023-04-03T04:21:48;3.03;;;0.77;;
70725;SDS011;58304;53.104;6.022;2023-04-03T04:24:14;1.52;;;0.70;;
70725;SDS011;58304;53.104;6.022;2023-04-03T04:26:40;2.08;;;0.80;;
70725;SDS011;58304;53.104;6.022;2023-04-03T04:29:05;2.05;;;0.63;;
70725;SDS011;58304;53.104;6.022;2023-04-03T04:31:31;6.88;;;0.82;;
70725;SDS011;58304;53.104;6.022;2023-04-03T04:33:56;2.85;;;0.80;;
70725;SDS011;58304;53.104;6.022;2023-04-03T04:36:22;4.63;;;1.00;;
70725;SDS011;58304;53.104;6.022;2023-04-03T04:38:48;2.55;;;0.80;;
70725;SDS011;58304;53.104;6.022;2023-04-03T04:41:13;3.88;;;1.00;;
70725;SDS011;58304;53.104;6.022;2023-04-03T04:43:39;2.40;;;0.80;;
70725;SDS011;58304;53.104;6.022;2023-04-03T04:46:09;4.53;;;1.00;;
70725;SDS011;58304;53.104;6.022;2023-04-03T04:48:37;3.78;;;0.77;;
70725;SDS011;58304;53.104;6.022;2023-04-03T04:51:03;2.45;;;1.00;;
70725;SDS011;58304;53.104;6.022;2023-04-03T04:53:29;4.20;;;1.00;;
70725;SDS011;58304;53.104;6.022;2023-04-03T04:55:55;4.38;;;0.82;;
70725;SDS011;58304;53.104;6.022;2023-04-03T04:58:20;3.05;;;1.02;;
70725;SDS011;58304;53.104;6.022;2023-04-03T05:00:46;4.47;;;1.02;;
70725;SDS011;58304;53.104;6.022;2023-04-03T05:03:12;5.18;;;1.17;;
70725;SDS011;58304;53.104;6.022;2023-04-03T05:05:38;2.53;;;0.95;;
70725;SDS011;58304;53.104;6.022;2023-04-03T05:08:04;5.00;;;1.10;;
70725;SDS011;58304;53.104;6.022;2023-04-03T05:10:29;2.88;;;1.00;;
70725;SDS011;58304;53.104;6.022;2023-04-03T05:12:56;5.22;;;0.95;;
70725;SDS011;58304;53.104;6.022;2023-04-03T05:15:22;3.28;;;1.00;;
70725;SDS011;58304;53.104;6.022;2023-04-03T05:17:47;1.55;;;0.80;;
70725;SDS011;58304;53.104;6.022;2023-04-03T05:20:13;2.58;;;0.98;;
70725;SDS011;58304;53.104;6.022;2023-04-03T05:22:39;9.18;;;1.33;;
70725;SDS011;58304;53.104;6.022;2023-04-03T05:25:05;4.18;;;1.00;;
70725;SDS011;58304;53.104;6.022;2023-04-03T05:27:31;4.60;;;1.20;;
70725;SDS011;58304;53.104;6.022;2023-04-03T05:29:56;2.67;;;1.00;;
70725;SDS011;58304;53.104;6.022;2023-04-03T05:32:23;5.35;;;1.20;;
70725;SDS011;58304;53.104;6.022;2023-04-03T05:34:50;3.45;;;1.17;;
70725;SDS011;58304;53.104;6.022;2023-04-03T05:37:16;2.88;;;1.10;;
70725;SDS011;58304;53.104;6.022;2023-04-03T05:39:42;5.78;;;1.30;;
70725;SDS011;58304;53.104;6.022;2023-04-03T05:42:07;10.23;;;1.27;;
70725;SDS011;58304;53.104;6.022;2023-04-03T05:44:33;6.65;;;1.38;;
70725;SDS011;58304;53.104;6.022;2023-04-03T05:46:59;2.42;;;1.00;;
70725;SDS011;58304;53.104;6.022;2023-04-03T05:49:25;3.08;;;1.17;;
70725;SDS011;58304;53.104;6.022;2023-04-03T05:51:50;3.47;;;1.23;;
70725;SDS011;58304;53.104;6.022;2023-04-03T05:56:45;4.32;;;1.35;;
70725;SDS011;58304;53.104;6.022;2023-04-03T05:59:10;5.68;;;1.30;;
70725;SDS011;58304;53.104;6.022;2023-04-03T06:01:36;6.13;;;1.40;;
70725;SDS011;58304;53.104;6.022;2023-04-03T06:04:02;3.88;;;1.40;;
70725;SDS011;58304;53.104;6.022;2023-04-03T06:09:24;6.25;;;1.20;;
70725;SDS011;58304;53.104;6.022;2023-04-03T06:11:51;4.32;;;1.33;;
70725;SDS011;58304;53.104;6.022;2023-04-03T06:14:18;3.85;;;1.42;;
70725;SDS011;58304;53.104;6.022;2023-04-03T06:16:44;4.80;;;1.30;;
70725;SDS011;58304;53.104;6.022;2023-04-03T06:19:11;5.07;;;1.50;;
70725;SDS011;58304;53.104;6.022;2023-04-03T06:21:37;5.03;;;1.30;;
70725;SDS011;58304;53.104;6.022;2023-04-03T06:24:06;5.63;;;1.45;;
70725;SDS011;58304;53.104;6.022;2023-04-03T06:26:32;4.72;;;1.70;;
70725;SDS011;58304;53.104;6.022;2023-04-03T06:28:58;5.20;;;1.60;;
70725;SDS011;58304;53.104;6.022;2023-04-03T06:33:50;6.63;;;1.55;;
70725;SDS011;58304;53.104;6.022;2023-04-03T06:36:17;7.20;;;1.35;;
70725;SDS011;58304;53.104;6.022;2023-04-03T06:38:45;3.70;;;1.48;;
70725;SDS011;58304;53.104;6.022;2023-04-03T06:43:37;8.20;;;1.40;;
70725;SDS011;58304;53.104;6.022;2023-04-03T06:48:28;6.30;;;2.05;;
70725;SDS011;58304;53.104;6.022;2023-04-03T06:50:54;5.00;;;1.65;;
70725;SDS011;58304;53.104;6.022;2023-04-03T06:55:46;4.32;;;1.27;;
70725;SDS011;58304;53.104;6.022;2023-04-03T06:58:12;4.22;;;1.50;;
70725;SDS011;58304;53.104;6.022;2023-04-03T07:00:40;4.18;;;1.33;;
70725;SDS011;58304;53.104;6.022;2023-04-03T07:03:07;4.10;;;1.20;;
70725;SDS011;58304;53.104;6.022;2023-04-03T07:05:33;4.65;;;1.40;;
70725;SDS011;58304;53.104;6.022;2023-04-03T07:08:00;4.03;;;1.35;;
70725;SDS011;58304;53.104;6.022;2023-04-03T07:10:25;4.72;;;1.63;;
70725;SDS011;58304;53.104;6.022;2023-04-03T07:12:51;5.38;;;1.35;;
70725;SDS011;58304;53.104;6.022;2023-04-03T07:15:19;4.63;;;1.30;;
70725;SDS011;58304;53.104;6.022;2023-04-03T07:17:46;8.02;;;1.40;;
70725;SDS011;58304;53.104;6.022;2023-04-03T07:20:12;5.00;;;1.60;;
70725;SDS011;58304;53.104;6.022;2023-04-03T07:22:38;4.32;;;1.27;;
70725;SDS011;58304;53.104;6.022;2023-04-03T07:25:04;4.60;;;1.50;;
70725;SDS011;58304;53.104;6.022;2023-04-03T07:27:32;4.05;;;1.20;;
70725;SDS011;58304;53.104;6.022;2023-04-03T07:29:58;3.67;;;1.23;;
70725;SDS011;58304;53.104;6.022;2023-04-03T07:32:23;4.10;;;1.10;;
70725;SDS011;58304;53.104;6.022;2023-04-03T07:34:50;3.75;;;1.27;;
70725;SDS011;58304;53.104;6.022;2023-04-03T07:37:16;5.05;;;1.42;;
70725;SDS011;58304;53.104;6.022;2023-04-03T07:39:45;4.35;;;1.30;;
70725;SDS011;58304;53.104;6.022;2023-04-03T07:42:11;4.82;;;1.10;;
70725;SDS011;58304;53.104;6.022;2023-04-03T07:44:38;3.08;;;0.90;;
70725;SDS011;58304;53.104;6.022;2023-04-03T07:47:03;3.28;;;0.93;;
70725;SDS011;58304;53.104;6.022;2023-04-03T07:49:29;3.13;;;1.13;;
70725;SDS011;58304;53.104;6.022;2023-04-03T07:51:56;2.58;;;1.05;;
70725;SDS011;58304;53.104;6.022;2023-04-03T07:54:23;3.80;;;1.30;;
70725;SDS011;58304;53.104;6.022;2023-04-03T07:56:49;2.47;;;1.02;;
70725;SDS011;58304;53.104;6.022;2023-04-03T07:59:15;4.78;;;1.30;;
70725;SDS011;58304;53.104;6.022;2023-04-03T08:01:40;3.63;;;1.10;;
70725;SDS011;58304;53.104;6.022;2023-04-03T08:04:06;3.53;;;0.90;;
70725;SDS011;58304;53.104;6.022;2023-04-03T08:06:32;2.30;;;1.05;;
70725;SDS011;58304;53.104;6.022;2023-04-03T08:09:00;3.10;;;1.10;;
70725;SDS011;58304;53.104;6.022;2023-04-03T08:11:27;2.22;;;0.90;;
70725;SDS011;58304;53.104;6.022;2023-04-03T08:13:53;3.08;;;1.17;;
70725;SDS011;58304;53.104;6.022;2023-04-03T08:16:20;4.30;;;1.30;;
70725;SDS011;58304;53.104;6.022;2023-04-03T08:18:48;4.30;;;1.00;;
70725;SDS011;58304;53.104;6.022;2023-04-03T08:21:15;2.60;;;0.90;;
70725;SDS011;58304;53.104;6.022;2023-04-03T08:23:41;2.65;;;1.02;;
70725;SDS011;58304;53.104;6.022;2023-04-03T08:26:15;3.45;;;1.10;;
70725;SDS011;58304;53.104;6.022;2023-04-03T08:28:42;2.85;;;0.93;;
70725;SDS011;58304;53.104;6.022;2023-04-03T08:31:12;4.18;;;1.00;;
70725;SDS011;58304;53.104;6.022;2023-04-03T08:33:42;3.05;;;1.08;;
70725;SDS011;58304;53.104;6.022;2023-04-03T08:36:14;3.25;;;0.90;;
70725;SDS011;58304;53.104;6.022;2023-04-03T08:38:48;2.17;;;0.82;;
70725;SDS011;58304;53.104;6.022;2023-04-03T08:49:40;1.75;;;0.70;;
70725;SDS011;58304;53.104;6.022;2023-04-03T08:55:10;3.70;;;0.77;;
70725;SDS011;58304;53.104;6.022;2023-04-03T08:57:44;2.72;;;1.02;;
70725;SDS011;58304;53.104;6.022;2023-04-03T09:02:48;2.88;;;0.90;;
70725;SDS011;58304;53.104;6.022;2023-04-03T09:05:17;2.80;;;0.73;;
70725;SDS011;58304;53.104;6.022;2023-04-03T09:07:59;2.35;;;0.70;;
70725;SDS011;58304;53.104;6.022;2023-04-03T09:10:32;2.00;;;0.60;;
70725;SDS011;58304;53.104;6.022;2023-04-03T09:13:05;2.65;;;0.70;;
70725;SDS011;58304;53.104;6.022;2023-04-03T09:15:37;1.33;;;0.60;;
70725;SDS011;58304;53.104;6.022;2023-04-03T09:18:04;1.48;;;0.60;;
70725;SDS011;58304;53.104;6.022;2023-04-03T09:23:22;2.10;;;0.70;;
70725;SDS011;58304;53.104;6.022;2023-04-03T09:25:49;1.70;;;0.85;;
70725;SDS011;58304;53.104;6.022;2023-04-03T09:28:19;1.48;;;0.60;;
70725;SDS011;58304;53.104;6.022;2023-04-03T09:30:45;1.52;;;0.70;;
70725;SDS011;58304;53.104;6.022;2023-04-03T09:33:11;1.88;;;0.70;;
70725;SDS011;58304;53.104;6.022;2023-04-03T09:35:40;2.35;;;0.70;;
70725;SDS011;58304;53.104;6.022;2023-04-03T09:40:44;3.15;;;0.80;;
70725;SDS011;58304;53.104;6.022;2023-04-03T09:45:53;2.45;;;0.70;;
70725;SDS011;58304;53.104;6.022;2023-04-03T09:48:29;1.48;;;0.60;;
70725;SDS011;58304;53.104;6.022;2023-04-03T09:50:56;1.38;;;0.60;;
70725;SDS011;58304;53.104;6.022;2023-04-03T09:53:42;1.75;;;0.65;;
70725;SDS011;58304;53.104;6.022;2023-04-03T09:58:41;1.85;;;0.70;;
70725;SDS011;58304;53.104;6.022;2023-04-03T10:01:23;3.30;;;0.80;;
70725;SDS011;58304;53.104;6.022;2023-04-03T10:04:14;1.75;;;0.70;;
70725;SDS011;58304;53.104;6.022;2023-04-03T10:06:42;1.08;;;0.50;;
70725;SDS011;58304;53.104;6.022;2023-04-03T10:12:18;2.03;;;0.60;;
70725;SDS011;58304;53.104;6.022;2023-04-03T10:19:56;1.98;;;0.70;;
70725;SDS011;58304;53.104;6.022;2023-04-03T10:27:57;2.40;;;0.80;;
70725;SDS011;58304;53.104;6.022;2023-04-03T10:33:01;2.35;;;0.68;;
70725;SDS011;58304;53.104;6.022;2023-04-03T10:39:02;2.85;;;0.60;;
70725;SDS011;58304;53.104;6.022;2023-04-03T10:44:20;1.45;;;0.50;;
70725;SDS011;58304;53.104;6.022;2023-04-03T10:46:59;2.15;;;0.80;;
70725;SDS011;58304;53.104;6.022;2023-04-03T10:52:30;2.83;;;0.70;;
70725;SDS011;58304;53.104;6.022;2023-04-03T10:55:35;2.15;;;0.50;;
70725;SDS011;58304;53.104;6.022;2023-04-03T10:58:36;2.03;;;0.57;;
70725;SDS011;58304;53.104;6.022;2023-04-03T11:01:05;0.90;;;0.45;;
70725;SDS011;58304;53.104;6.022;2023-04-03T11:03:45;2.17;;;0.50;;
70725;SDS011;58304;53.104;6.022;2023-04-03T11:06:15;1.42;;;0.70;;
70725;SDS011;58304;53.104;6.022;2023-04-03T11:08:50;0.93;;;0.50;;
70725;SDS011;58304;53.104;6.022;2023-04-03T11:11:26;1.95;;;0.60;;
70725;SDS011;58304;53.104;6.022;2023-04-03T11:16:46;2.45;;;0.55;;
70725;SDS011;58304;53.104;6.022;2023-04-03T11:21:47;2.53;;;0.65;;
70725;SDS011;58304;53.104;6.022;2023-04-03T11:24:23;5.15;;;0.73;;
70725;SDS011;58304;53.104;6.022;2023-04-03T11:26:52;1.75;;;0.60;;
70725;SDS011;58304;53.104;6.022;2023-04-03T11:29:24;1.30;;;0.57;;
70725;SDS011;58304;53.104;6.022;2023-04-03T11:37:50;1.35;;;0.60;;
70725;SDS011;58304;53.104;6.022;2023-04-03T11:42:36;1.92;;;0.70;;
70725;SDS011;58304;53.104;6.022;2023-04-03T11:45:16;0.98;;;0.57;;
70725;SDS011;58304;53.104;6.022;2023-04-03T11:47:56;1.35;;;0.60;;
70725;SDS011;58304;53.104;6.022;2023-04-03T12:05:53;1.42;;;0.50;;
70725;SDS011;58304;53.104;6.022;2023-04-03T12:11:24;0.85;;;0.43;;
70725;SDS011;58304;53.104;6.022;2023-04-03T12:26:44;1.73;;;0.52;;
70725;SDS011;58304;53.104;6.022;2023-04-03T12:29:23;1.38;;;0.60;;
70725;SDS011;58304;53.104;6.022;2023-04-03T12:32:06;0.65;;;0.40;;
70725;SDS011;58304;53.104;6.022;2023-04-03T12:35:04;1.27;;;0.50;;
70725;SDS011;58304;53.104;6.022;2023-04-03T12:48:37;2.05;;;0.50;;
70725;SDS011;58304;53.104;6.022;2023-04-03T12:51:16;1.15;;;0.50;;
70725;SDS011;58304;53.104;6.022;2023-04-03T12:54:03;2.00;;;0.68;;
70725;SDS011;58304;53.104;6.022;2023-04-03T12:56:38;0.88;;;0.40;;
70725;SDS011;58304;53.104;6.022;2023-04-03T12:59:15;1.30;;;0.60;;
70725;SDS011;58304;53.104;6.022;2023-04-03T13:01:56;1.63;;;0.50;;
70725;SDS011;58304;53.104;6.022;2023-04-03T13:04:23;0.90;;;0.50;;
70725;SDS011;58304;53.104;6.022;2023-04-03T13:06:49;1.88;;;0.60;;
70725;SDS011;58304;53.104;6.022;2023-04-03T13:09:28;1.13;;;0.50;;
70725;SDS011;58304;53.104;6.022;2023-04-03T13:12:00;2.33;;;0.70;;
70725;SDS011;58304;53.104;6.022;2023-04-03T13:14:29;2.33;;;0.90;;
70725;SDS011;58304;53.104;6.022;2023-04-03T13:16:57;1.35;;;0.63;;
70725;SDS011;58304;53.104;6.022;2023-04-03T13:19:26;2.10;;;0.70;;
70725;SDS011;58304;53.104;6.022;2023-04-03T13:21:56;2.38;;;0.77;;
70725;SDS011;58304;53.104;6.022;2023-04-03T13:24:28;1.35;;;0.60;;
70725;SDS011;58304;53.104;6.022;2023-04-03T13:26:55;2.92;;;0.73;;
70725;SDS011;58304;53.104;6.022;2023-04-03T13:29:23;1.95;;;0.82;;
70725;SDS011;58304;53.104;6.022;2023-04-03T13:31:53;1.25;;;0.60;;
70725;SDS011;58304;53.104;6.022;2023-04-03T13:34:21;1.40;;;0.60;;
70725;SDS011;58304;53.104;6.022;2023-04-03T13:39:28;1.80;;;0.70;;
70725;SDS011;58304;53.104;6.022;2023-04-03T13:42:01;1.25;;;0.50;;
70725;SDS011;58304;53.104;6.022;2023-04-03T13:44:47;1.05;;;0.60;;
70725;SDS011;58304;53.104;6.022;2023-04-03T13:55:20;1.65;;;0.70;;
70725;SDS011;58304;53.104;6.022;2023-04-03T13:58:01;1.92;;;0.65;;
70725;SDS011;58304;53.104;6.022;2023-04-03T14:03:29;2.78;;;0.70;;
70725;SDS011;58304;53.104;6.022;2023-04-03T14:06:07;1.63;;;0.60;;
70725;SDS011;58304;53.104;6.022;2023-04-03T14:08:35;1.30;;;0.70;;
70725;SDS011;58304;53.104;6.022;2023-04-03T14:11:01;2.50;;;0.60;;
70725;SDS011;58304;53.104;6.022;2023-04-03T14:13:29;1.90;;;0.55;;
70725;SDS011;58304;53.104;6.022;2023-04-03T14:15:55;3.97;;;0.80;;
70725;SDS011;58304;53.104;6.022;2023-04-03T14:18:21;2.50;;;0.80;;
70725;SDS011;58304;53.104;6.022;2023-04-03T14:20:47;2.28;;;0.70;;
70725;SDS011;58304;53.104;6.022;2023-04-03T14:23:13;3.47;;;0.70;;
70725;SDS011;58304;53.104;6.022;2023-04-03T14:25:39;1.20;;;0.50;;
70725;SDS011;58304;53.104;6.022;2023-04-03T14:28:40;1.10;;;0.50;;
70725;SDS011;58304;53.104;6.022;2023-04-03T14:30:58;2.03;;;0.60;;
70725;SDS011;58304;53.104;6.022;2023-04-03T14:33:24;2.22;;;0.80;;
70725;SDS011;58304;53.104;6.022;2023-04-03T14:35:53;2.72;;;0.77;;
70725;SDS011;58304;53.104;6.022;2023-04-03T14:38:27;1.65;;;0.60;;
70725;SDS011;58304;53.104;6.022;2023-04-03T14:40:54;1.75;;;0.63;;
70725;SDS011;58304;53.104;6.022;2023-04-03T14:43:21;1.73;;;0.60;;
70725;SDS011;58304;53.104;6.022;2023-04-03T14:45:47;0.80;;;0.47;;
70725;SDS011;58304;53.104;6.022;2023-04-03T14:48:21;1.73;;;0.60;;
70725;SDS011;58304;53.104;6.022;2023-04-03T14:50:50;1.98;;;0.60;;
70725;SDS011;58304;53.104;6.022;2023-04-03T14:53:16;1.70;;;0.70;;
70725;SDS011;58304;53.104;6.022;2023-04-03T14:55:46;3.35;;;0.77;;
70725;SDS011;58304;53.104;6.022;2023-04-03T14:58:13;0.77;;;0.40;;
70725;SDS011;58304;53.104;6.022;2023-04-03T15:00:43;1.20;;;0.60;;
70725;SDS011;58304;53.104;6.022;2023-04-03T15:03:14;2.53;;;0.60;;
70725;SDS011;58304;53.104;6.022;2023-04-03T15:05:42;0.98;;;0.40;;
70725;SDS011;58304;53.104;6.022;2023-04-03T15:08:13;1.50;;;0.70;;
70725;SDS011;58304;53.104;6.022;2023-04-03T15:10:48;1.02;;;0.52;;
70725;SDS011;58304;53.104;6.022;2023-04-03T15:13:15;2.22;;;0.80;;
70725;SDS011;58304;53.104;6.022;2023-04-03T15:15:40;2.17;;;0.60;;
70725;SDS011;58304;53.104;6.022;2023-04-03T15:18:09;1.27;;;0.60;;
70725;SDS011;58304;53.104;6.022;2023-04-03T15:20:40;3.13;;;0.70;;
70725;SDS011;58304;53.104;6.022;2023-04-03T15:23:10;2.05;;;0.80;;
70725;SDS011;58304;53.104;6.022;2023-04-03T15:25:37;1.83;;;0.90;;
70725;SDS011;58304;53.104;6.022;2023-04-03T15:28:04;1.83;;;0.73;;
70725;SDS011;58304;53.104;6.022;2023-04-03T15:30:30;1.95;;;0.63;;
70725;SDS011;58304;53.104;6.022;2023-04-03T15:32:56;1.60;;;0.60;;
70725;SDS011;58304;53.104;6.022;2023-04-03T15:35:21;2.85;;;0.65;;
70725;SDS011;58304;53.104;6.022;2023-04-03T15:37:48;1.33;;;0.73;;
70725;SDS011;58304;53.104;6.022;2023-04-03T15:40:16;1.30;;;0.55;;
70725;SDS011;58304;53.104;6.022;2023-04-03T15:42:41;1.58;;;0.60;;
70725;SDS011;58304;53.104;6.022;2023-04-03T15:45:07;1.70;;;0.70;;
70725;SDS011;58304;53.104;6.022;2023-04-03T15:47:33;2.78;;;0.60;;
70725;SDS011;58304;53.104;6.022;2023-04-03T15:50:00;2.35;;;0.90;;
70725;SDS011;58304;53.104;6.022;2023-04-03T15:52:26;1.55;;;0.50;;
70725;SDS011;58304;53.104;6.022;2023-04-03T15:54:51;1.60;;;0.70;;
70725;SDS011;58304;53.104;6.022;2023-04-03T15:57:17;2.80;;;0.73;;
70725;SDS011;58304;53.104;6.022;2023-04-03T15:59:43;4.30;;;0.80;;
70725;SDS011;58304;53.104;6.022;2023-04-03T16:02:08;1.92;;;0.77;;
70725;SDS011;58304;53.104;6.022;2023-04-03T16:04:37;0.90;;;0.50;;
70725;SDS011;58304;53.104;6.022;2023-04-03T16:07:03;2.53;;;0.50;;
70725;SDS011;58304;53.104;6.022;2023-04-03T16:09:30;1.73;;;0.60;;
70725;SDS011;58304;53.104;6.022;2023-04-03T16:11:57;1.75;;;0.60;;
70725;SDS011;58304;53.104;6.022;2023-04-03T16:14:22;1.88;;;0.50;;
70725;SDS011;58304;53.104;6.022;2023-04-03T16:16:48;1.13;;;0.50;;
70725;SDS011;58304;53.104;6.022;2023-04-03T16:19:16;2.08;;;0.55;;
70725;SDS011;58304;53.104;6.022;2023-04-03T16:21:42;0.63;;;0.50;;
70725;SDS011;58304;53.104;6.022;2023-04-03T16:24:08;1.23;;;0.50;;
70725;SDS011;58304;53.104;6.022;2023-04-03T16:26:34;1.42;;;0.70;;
70725;SDS011;58304;53.104;6.022;2023-04-03T16:28:59;1.58;;;0.50;;
70725;SDS011;58304;53.104;6.022;2023-04-03T16:31:25;1.25;;;0.50;;
70725;SDS011;58304;53.104;6.022;2023-04-03T16:33:51;1.38;;;0.50;;
70725;SDS011;58304;53.104;6.022;2023-04-03T16:36:17;0.95;;;0.40;;
70725;SDS011;58304;53.104;6.022;2023-04-03T16:38:43;1.30;;;0.50;;
70725;SDS011;58304;53.104;6.022;2023-04-03T16:41:09;2.00;;;0.60;;
70725;SDS011;58304;53.104;6.022;2023-04-03T16:43:34;0.77;;;0.35;;
70725;SDS011;58304;53.104;6.022;2023-04-03T16:46:01;1.23;;;0.55;;
70725;SDS011;58304;53.104;6.022;2023-04-03T16:48:28;2.13;;;0.60;;
70725;SDS011;58304;53.104;6.022;2023-04-03T16:50:54;1.33;;;0.40;;
70725;SDS011;58304;53.104;6.022;2023-04-03T16:53:20;0.93;;;0.50;;
70725;SDS011;58304;53.104;6.022;2023-04-03T16:55:47;0.95;;;0.47;;
70725;SDS011;58304;53.104;6.022;2023-04-03T16:58:13;1.45;;;0.55;;
70725;SDS011;58304;53.104;6.022;2023-04-03T17:00:40;1.13;;;0.40;;
70725;SDS011;58304;53.104;6.022;2023-04-03T17:03:06;1.10;;;0.60;;
70725;SDS011;58304;53.104;6.022;2023-04-03T17:05:31;1.38;;;0.40;;
70725;SDS011;58304;53.104;6.022;2023-04-03T17:07:57;1.45;;;0.68;;
70725;SDS011;58304;53.104;6.022;2023-04-03T17:10:23;2.08;;;0.50;;
70725;SDS011;58304;53.104;6.022;2023-04-03T17:12:49;1.17;;;0.50;;
70725;SDS011;58304;53.104;6.022;2023-04-03T17:15:15;1.27;;;0.50;;
70725;SDS011;58304;53.104;6.022;2023-04-03T17:17:40;2.40;;;0.55;;
70725;SDS011;58304;53.104;6.022;2023-04-03T17:20:06;1.83;;;0.60;;
70725;SDS011;58304;53.104;6.022;2023-04-03T17:22:32;2.15;;;0.65;;
70725;SDS011;58304;53.104;6.022;2023-04-03T17:24:58;1.77;;;0.70;;
70725;SDS011;58304;53.104;6.022;2023-04-03T17:27:24;1.77;;;0.60;;
70725;SDS011;58304;53.104;6.022;2023-04-03T17:29:50;2.22;;;0.60;;